New Orleans, Louisiana
Traffic Map
Current Weather Conditions
New Orleans, Louisiana
Broken Clouds
Broken Clouds
88°
Feels Like: 96°
Wind Chill: 88° Ceiling: 5000
Heat Index: 96° Visibility: 7mi
Dew Point: 73° Wind: 12mph
Humidity: 62% Direction: 50° (NE)
Pressure: 30.04in Gusts: 20mph
Raw Report DataKVSH 021915Z AUTO 05010G17KT 7SM FEW025 SCT043 BKN050 31/23 A3004 RMK AO1
Traffic Incident Summary
Active as of:
Severity:
Category:
InformationThere was an issue retrieving the traffic information for this location. Please try a different location or try again shortly.
Advertisements
Track Severe Weather on mobile